Recluse, WY (82725)

8:52 AM MDT on August 30, 2015 (GMT -0600)
APRSWXNET | | Change Station
CLOSE
Current Station
Personal Weather Station
Location: Weston, WY
Elevation: 3854 ft
Nearby Weather Stations
Active Advisory: Fire Weather Warning

Elev 3854 ft 44.99 °N, 105.20 °W | Updated 23 minutes ago

Clear
Clear
75 °F
Feels Like 77 °F
N
9
Wind Variable Wind from SSE
Gusts 14.0 mph

Today
High -- | Low -- °F
--% Chance of Precip.
Yesterday
High -- | Low -- °F
Precip. -- in
6:22 AM 7:43 PM
Full, 99% visible
Pressure 29.73 in
Visibility 10.0 miles
Clouds Clear
Heat Index 77 °F
Dew Point 43 °F
Humidity 32%
Rainfall in
Snow Depth Not available.
UV 1 out of 12
Pollen 9.40 out of 12
Air Quality Not available.
Flu Activity Not available.
METAR KGCC 301353Z AUTO 22011G21KT 10SM CLR 25/02 A2989 RMK AO2 SLP065 T02500022 $
Pressure 29.73 in
Visibility 10.0 miles
Clouds Clear
Heat Index 77 °F
Dew Point 43 °F
Humidity 32%
Rainfall in
Snow Depth Not available.
UV 1 out of 12
Pollen 9.40 out of 12
Air Quality Not available.
Flu Activity Not available.
METAR KGCC 301353Z AUTO 22011G21KT 10SM CLR 25/02 A2989 RMK AO2 SLP065 T02500022 $

10-Day Weather Forecast

×

Almanac

Astronomy

Aug. 30, 2015 Rise Set
Actual Time
Civil Twilight
Nautical Twilight
Astronomical Twilight
Moon
Length of Visible Light
Length of Day
Tomorrow will be .
, % of the Moon is Illuminated

Today's Extremes

State Highs State Lows

Community

WunderPhotos

Upload Photos

1,850,974 photos uploaded!

WunderBlogs® & News

Nearby

Air Quality

  Air Quality AQ Index Pollutant
Not available.

Snow Depth

Station Depth Elevation

Earthquake Activity

City Distance Mag. Time & Date
Minimum magnitude displayed is 2.5.

Coastal Water Temperatures

Place Temperature

Stations

Nearby Weather Stations

Station Location Temp. Windchill Dew Point Humidity Wind Precip. Elev Updated Type
                   
Fire Weather Warning
Statement as of 4:00 AM MDT on August 30, 2015

... Red flag warning remains in effect until 8 PM MDT this evening
for gusty winds and low relative humidity for fire weather zones
259... 297 and 298...

* affected area... fire weather zones 259... 297 and 298.

* Winds... south 15 to 25 mph with gusts up to 35 mph.

* Relative humidity... 15 percent or below.

* Impacts... wildfires can spread rapidly in the very dry fuels.

Precautionary/preparedness actions...

A red flag warning means that critical fire weather conditions
are either occurring now... or will shortly. A combination of
strong winds... low relative humidity... and warm temperatures can
contribute to extreme fire behavior.